Bly, Oregon
Current Conditions -  °F | °C
As of 3:55 PM on Wednesday 22 Oct 2014 (Local Time) from KLKV Reporting Station
Overcast Overcast  
Wind Chill: 54°   Ceiling: 9000
Heat Index: 54°   Visibility: 10mi
Dew Point: 30°   Wind: 16mph
Humidity: 41%   Direction: 190°S
Pressure: 30.03"   Gusts: 22mph
Location:  42.4°N, 121.04°W
Report Text: KLKV 222255Z AUTO 19014G19KT 10SM OVC090 12/M01 A3003 RMK AO1
Loading
Personal Weather Stations






























Interactive Weather Map
Tropical Storm Tracking
New forecast layout! Learn more

10-Day Weather Forecast

Advertisements
Track Severe Weather on mobile